Time;durP1;ratioP1;P1;durP2;ratioP2;P2;SDS_P1;SDS_P2;PMS_P1;PMS_P2;Temp;Humidity;BMP_temperature;BMP_pressure;BME280_temperature;BME280_humidity;BME280_pressure;Samples;Min_cycle;Max_cycle;Signal;HPM_P1;HPM_P2
2021/04/09 00:01:56;;;;;;;1.80;1.70;;;11.50;71.30;;;;;;5115304;28;20035;-40
2021/04/09 00:04:22;;;;;;;1.80;1.50;;;11.50;71.30;;;;;;5115246;28;20047;-41
2021/04/09 00:06:48;;;;;;;2.15;1.80;;;11.50;71.40;;;;;;5115502;28;20100;-40
2021/04/09 00:09:14;;;;;;;1.60;1.50;;;11.50;71.30;;;;;;5115010;28;20383;-40
2021/04/09 00:11:41;;;;;;;1.77;1.67;;;11.50;71.40;;;;;;5114821;28;20051;-41
2021/04/09 00:14:09;;;;;;;2.00;1.67;;;11.60;71.40;;;;;;5112583;28;20040;-41
2021/04/09 00:16:35;;;;;;;1.85;1.58;;;11.50;71.40;;;;;;5114808;28;20111;-42
2021/04/09 00:19:06;;;;;;;1.70;1.60;;;11.40;71.30;;;;;;5114974;28;20404;-41
2021/04/09 00:21:32;;;;;;;2.08;1.70;;;11.50;71.40;;;;;;5114945;28;20411;-38
2021/04/09 00:23:59;;;;;;;2.03;1.75;;;11.50;71.40;;;;;;5114492;28;20123;-40
2021/04/09 00:26:25;;;;;;;1.83;1.52;;;11.50;71.40;;;;;;5114533;28;20043;-41
2021/04/09 00:28:50;;;;;;;2.22;1.80;;;11.50;71.40;;;;;;5115005;28;20104;-40
2021/04/09 00:31:16;;;;;;;2.28;1.90;;;11.50;71.40;;;;;;5114571;28;20044;-39
2021/04/09 00:33:42;;;;;;;2.67;1.95;;;11.50;71.40;;;;;;5114704;28;20043;-41
2021/04/09 00:36:08;;;;;;;1.67;1.55;;;11.50;71.40;;;;;;5114007;28;20097;-41
2021/04/09 00:38:33;;;;;;;2.35;1.67;;;11.50;71.40;;;;;;5114171;28;20052;-40
2021/04/09 00:40:59;;;;;;;1.40;1.30;;;11.50;71.40;;;;;;5114651;28;20054;-40
2021/04/09 00:43:25;;;;;;;1.77;1.60;;;11.50;71.40;;;;;;5114484;28;20437;-41
2021/04/09 00:45:51;;;;;;;2.03;1.70;;;11.50;71.40;;;;;;5114094;28;20043;-43
2021/04/09 00:48:16;;;;;;;2.75;1.70;;;11.50;71.40;;;;;;5114548;28;20050;-41
2021/04/09 00:50:42;;;;;;;2.10;1.90;;;11.50;71.40;;;;;;5114156;28;20066;-39
2021/04/09 00:53:13;;;;;;;2.25;2.05;;;11.50;71.40;;;;;;5114192;28;20143;-40
2021/04/09 00:55:39;;;;;;;2.35;1.63;;;11.50;71.40;;;;;;5114119;28;20047;-40
2021/04/09 00:58:05;;;;;;;2.20;2.00;;;11.50;71.40;;;;;;5113904;28;20046;-40
2021/04/09 01:00:32;;;;;;;2.20;1.63;;;11.50;71.40;;;;;;5114489;28;20143;-40
2021/04/09 01:02:59;;;;;;;1.92;1.80;;;11.50;71.40;;;;;;5113952;28;20115;-40
2021/04/09 01:05:25;;;;;;;2.65;1.70;;;11.50;71.40;;;;;;5113958;28;20399;-40
2021/04/09 01:07:51;;;;;;;2.47;1.95;;;11.50;71.40;;;;;;5113881;28;20090;-41
2021/04/09 01:10:19;;;;;;;2.00;1.60;;;11.50;71.40;;;;;;5114165;27;20059;-40
2021/04/09 01:12:48;;;;;;;2.00;1.80;;;11.50;71.40;;;;;;5113725;28;20040;-41
2021/04/09 01:15:16;;;;;;;2.05;1.60;;;11.50;71.40;;;;;;5113858;28;20043;-40
2021/04/09 01:17:59;;;;;;;1.95;1.80;;;11.50;71.40;;;;;;5113629;28;20055;-42
2021/04/09 01:20:47;;;;;;;2.65;1.75;;;11.50;71.40;;;;;;5114199;28;20126;-41
2021/04/09 01:23:28;;;;;;;2.20;1.85;;;11.50;71.40;;;;;;5111851;28;20050;-39
2021/04/09 01:26:31;;;;;;;2.00;1.65;;;11.50;71.40;;;;;;5111507;28;20049;-41
2021/04/09 01:29:18;;;;;;;2.65;1.85;;;11.50;71.40;;;;;;5111978;28;20085;-42
2021/04/09 01:31:59;;;;;;;1.90;1.73;;;11.50;71.40;;;;;;5113172;28;20051;-44
2021/04/09 01:34:36;;;;;;;1.92;1.75;;;11.50;71.40;;;;;;5113602;28;20048;-42
2021/04/09 01:37:10;;;;;;;2.45;1.95;;;11.50;71.40;;;;;;5113666;28;20059;-42
2021/04/09 01:39:41;;;;;;;1.50;1.40;;;11.50;71.40;;;;;;5111870;28;20526;-43
2021/04/09 01:42:10;;;;;;;2.78;1.77;;;11.50;71.40;;;;;;5113012;28;20326;-40
2021/04/09 01:44:41;;;;;;;2.20;1.92;;;11.50;71.40;;;;;;5113010;28;20051;-44
2021/04/09 01:47:07;;;;;;;2.08;1.60;;;11.50;71.40;;;;;;5112118;28;20100;-39
2021/04/09 01:49:35;;;;;;;2.10;1.63;;;11.50;71.50;;;;;;5112930;28;20044;-41
2021/04/09 01:52:04;;;;;;;2.80;1.95;;;11.50;72.10;;;;;;5112951;28;20035;-43
2021/04/09 01:54:32;;;;;;;2.25;1.77;;;11.50;71.50;;;;;;5110837;28;20057;-42
2021/04/09 01:56:58;;;;;;;2.00;1.80;;;11.50;71.50;;;;;;5112738;28;20090;-42
2021/04/09 01:59:24;;;;;;;2.67;1.95;;;11.50;71.50;;;;;;5112667;28;20615;-40
2021/04/09 02:01:51;;;;;;;2.58;2.25;;;11.50;71.50;;;;;;5112787;28;20437;-41
2021/04/09 02:04:18;;;;;;;2.30;2.00;;;11.50;71.50;;;;;;5113447;28;20040;-42
2021/04/09 02:06:45;;;;;;;2.83;1.95;;;11.50;71.50;;;;;;5112959;28;20100;-41
2021/04/09 02:09:12;;;;;;;2.08;1.80;;;11.50;71.50;;;;;;5113007;28;20052;-41
2021/04/09 02:11:40;;;;;;;2.25;1.58;;;11.50;71.50;;;;;;5112757;28;20043;-40
2021/04/09 02:14:10;;;;;;;1.55;1.42;;;11.50;71.50;;;;;;5112492;28;20088;-43
2021/04/09 02:16:36;;;;;;;2.15;1.88;;;11.50;71.50;;;;;;5112826;28;20049;-41
2021/04/09 02:19:06;;;;;;;1.90;1.60;;;11.50;71.50;;;;;;5112921;28;20071;-41
2021/04/09 02:21:33;;;;;;;2.00;1.80;;;11.50;71.50;;;;;;5112611;28;20139;-41
2021/04/09 02:24:00;;;;;;;1.83;1.55;;;11.50;71.50;;;;;;5113207;28;20043;-40
2021/04/09 02:26:27;;;;;;;2.42;2.05;;;11.50;71.50;;;;;;5108524;28;20056;-40
2021/04/09 02:28:53;;;;;;;1.92;1.83;;;11.50;71.50;;;;;;5112241;28;20039;-40
2021/04/09 02:31:20;;;;;;;2.08;1.75;;;11.50;71.50;;;;;;5112359;28;20045;-38
2021/04/09 02:33:46;;;;;;;2.33;2.08;;;11.50;71.50;;;;;;5112878;28;20046;-40
2021/04/09 02:36:14;;;;;;;2.50;1.67;;;11.50;71.50;;;;;;5112678;28;20466;-40
2021/04/09 02:38:43;;;;;;;1.88;1.70;;;11.50;71.50;;;;;;5112705;28;20135;-41
2021/04/09 02:41:11;;;;;;;2.08;1.88;;;11.50;71.50;;;;;;5110020;28;20073;-41
2021/04/09 02:43:37;;;;;;;2.28;1.70;;;11.50;71.50;;;;;;5110721;28;20074;-43
2021/04/09 02:46:08;;;;;;;1.88;1.70;;;11.50;71.50;;;;;;5112296;28;20050;-40
2021/04/09 02:48:37;;;;;;;1.88;1.60;;;11.50;71.50;;;;;;5112594;28;20039;-41
2021/04/09 02:51:07;;;;;;;2.03;1.70;;;11.50;71.50;;;;;;5112674;28;20051;-40
2021/04/09 02:53:37;;;;;;;2.45;2.00;;;11.50;71.50;;;;;;5111908;28;20043;-38
2021/04/09 02:56:04;;;;;;;2.10;1.90;;;11.50;71.50;;;;;;5111904;28;20043;-39
2021/04/09 02:58:32;;;;;;;2.17;1.80;;;11.50;71.50;;;;;;5114833;28;20051;-40
2021/04/09 03:00:59;;;;;;;1.83;1.50;;;11.50;71.50;;;;;;5116867;28;20136;-41
2021/04/09 03:03:28;;;;;;;2.33;1.50;;;11.50;71.60;;;;;;5115184;28;20070;-41
2021/04/09 03:05:55;;;;;;;2.42;1.70;;;11.50;71.50;;;;;;5116717;28;20101;-40
2021/04/09 03:08:22;;;;;;;2.72;2.20;;;11.50;71.50;;;;;;5116402;28;20043;-40
2021/04/09 03:10:48;;;;;;;1.92;1.73;;;11.50;71.50;;;;;;5113445;28;20446;-41
2021/04/09 03:13:14;;;;;;;2.60;1.77;;;11.50;71.60;;;;;;5116067;28;20043;-40
2021/04/09 03:15:59;;;;;;;2.22;1.83;;;11.50;71.60;;;;;;5115953;28;20059;-41
2021/04/09 03:18:27;;;;;;;2.53;1.90;;;11.50;71.50;;;;;;5115816;28;20376;-41
2021/04/09 03:20:54;;;;;;;1.88;1.73;;;11.50;71.60;;;;;;5116285;28;20046;-40
2021/04/09 03:23:21;;;;;;;2.03;1.75;;;11.50;71.60;;;;;;5115949;28;20046;-41
2021/04/09 03:25:47;;;;;;;2.30;2.10;;;11.50;71.60;;;;;;5115823;28;20048;-41
2021/04/09 03:28:13;;;;;;;1.70;1.60;;;11.50;71.60;;;;;;5115908;28;20054;-40
2021/04/09 03:30:40;;;;;;;2.20;1.73;;;11.50;71.60;;;;;;5115890;28;20031;-42
2021/04/09 03:33:06;;;;;;;2.58;1.90;;;11.50;71.60;;;;;;5115699;28;20067;-40
2021/04/09 03:35:32;;;;;;;2.00;1.80;;;11.50;71.60;;;;;;5116022;28;20482;-40
2021/04/09 03:37:58;;;;;;;2.20;1.90;;;11.50;71.60;;;;;;5115746;28;20044;-40
2021/04/09 03:40:24;;;;;;;1.83;1.63;;;11.50;71.60;;;;;;5115735;28;20134;-40
2021/04/09 03:42:49;;;;;;;2.65;1.63;;;11.50;71.60;;;;;;5115408;28;20043;-39
2021/04/09 03:45:15;;;;;;;2.83;1.75;;;11.50;71.60;;;;;;5114918;28;20093;-38
2021/04/09 03:47:42;;;;;;;2.17;1.83;;;11.50;71.60;;;;;;5115762;28;20380;-40
2021/04/09 03:50:08;;;;;;;2.50;1.75;;;11.50;71.60;;;;;;5115830;28;20050;-42
2021/04/09 03:52:37;;;;;;;2.20;1.88;;;11.50;71.60;;;;;;5115744;28;20124;-39
2021/04/09 03:55:05;;;;;;;1.90;1.60;;;11.50;71.60;;;;;;5114877;28;20497;-40
2021/04/09 03:57:31;;;;;;;1.88;1.67;;;11.50;71.60;;;;;;5115218;28;20134;-40
2021/04/09 03:59:57;;;;;;;1.80;1.63;;;11.50;71.60;;;;;;5115463;28;20526;-40
2021/04/09 04:02:24;;;;;;;2.55;1.70;;;11.50;71.60;;;;;;5114885;28;20557;-39
2021/04/09 04:04:50;;;;;;;1.85;1.75;;;11.50;71.60;;;;;;5115311;28;20039;-40
2021/04/09 04:07:16;;;;;;;2.80;1.95;;;11.50;71.60;;;;;;5114939;28;20060;-40
2021/04/09 04:09:41;;;;;;;2.90;2.17;;;11.50;71.60;;;;;;5113005;28;20071;-40
2021/04/09 04:12:08;;;;;;;2.03;1.83;;;11.50;71.60;;;;;;5115103;28;20043;-39
2021/04/09 04:14:33;;;;;;;2.53;1.90;;;11.50;71.60;;;;;;5114986;28;20491;-39
2021/04/09 04:16:59;;;;;;;2.50;2.00;;;11.50;71.60;;;;;;5114827;28;20127;-39
2021/04/09 04:19:25;;;;;;;2.90;2.10;;;11.60;71.70;;;;;;5114847;28;20431;-39
2021/04/09 04:21:51;;;;;;;1.88;1.67;;;11.50;71.60;;;;;;5113736;28;20055;-39
2021/04/09 04:24:17;;;;;;;3.40;1.83;;;11.50;71.60;;;;;;5115100;28;20117;-39
2021/04/09 04:26:43;;;;;;;2.22;1.98;;;11.50;71.60;;;;;;5114577;28;20061;-39
2021/04/09 04:29:08;;;;;;;1.90;1.80;;;11.50;71.60;;;;;;5114475;27;20088;-39
2021/04/09 04:31:34;;;;;;;2.08;1.88;;;11.50;71.60;;;;;;5115032;28;20050;-41
2021/04/09 04:34:00;;;;;;;3.35;1.92;;;11.50;71.60;;;;;;5114655;28;20126;-40
2021/04/09 04:36:25;;;;;;;2.60;2.00;;;11.50;71.60;;;;;;5114768;28;20051;-41
2021/04/09 04:38:51;;;;;;;1.95;1.60;;;11.50;71.60;;;;;;5114583;28;20445;-40
2021/04/09 04:41:18;;;;;;;2.53;2.25;;;11.50;71.60;;;;;;5114326;28;20063;-41
2021/04/09 04:43:44;;;;;;;1.88;1.70;;;11.50;71.60;;;;;;5114247;28;20398;-41
2021/04/09 04:46:10;;;;;;;2.00;1.80;;;11.50;71.60;;;;;;5114254;28;20387;-39
2021/04/09 04:48:36;;;;;;;2.35;1.88;;;11.50;71.60;;;;;;5113748;28;20050;-40
2021/04/09 04:51:02;;;;;;;3.60;2.38;;;11.50;71.60;;;;;;5113565;28;20073;-39
2021/04/09 04:53:28;;;;;;;2.30;2.08;;;11.50;71.60;;;;;;5113594;28;20454;-41
2021/04/09 04:55:54;;;;;;;2.33;1.98;;;11.50;71.60;;;;;;5113418;28;20043;-41
2021/04/09 04:58:20;;;;;;;2.35;2.15;;;11.40;71.60;;;;;;5114435;27;20059;-39
2021/04/09 05:00:46;;;;;;;2.42;2.10;;;11.50;71.60;;;;;;5114346;28;20039;-40
2021/04/09 05:03:12;;;;;;;2.08;1.88;;;11.50;71.60;;;;;;5113476;28;20116;-39
2021/04/09 05:05:38;;;;;;;2.47;2.03;;;11.50;71.70;;;;;;5114526;28;20492;-41
2021/04/09 05:08:04;;;;;;;2.60;2.10;;;11.50;71.60;;;;;;5113970;28;20040;-39
2021/04/09 05:10:29;;;;;;;2.40;1.95;;;11.50;71.60;;;;;;5113753;28;20089;-40
2021/04/09 05:12:55;;;;;;;2.20;2.00;;;11.50;71.60;;;;;;5114018;28;20403;-39
2021/04/09 05:15:21;;;;;;;2.50;1.92;;;11.50;71.60;;;;;;5113970;28;20048;-41
2021/04/09 05:17:47;;;;;;;2.20;1.98;;;11.50;71.60;;;;;;5112527;28;20044;-39
2021/04/09 05:20:13;;;;;;;2.67;2.22;;;11.50;71.60;;;;;;5113588;28;20499;-40
2021/04/09 05:22:39;;;;;;;2.47;2.00;;;11.50;71.60;;;;;;5112934;28;20039;-41
2021/04/09 05:25:05;;;;;;;2.85;1.98;;;11.50;71.60;;;;;;5113619;28;20392;-42
2021/04/09 05:27:31;;;;;;;2.13;1.90;;;11.50;71.60;;;;;;5113438;28;20530;-42
2021/04/09 05:29:57;;;;;;;2.42;2.10;;;11.50;71.60;;;;;;5113693;28;20039;-42
2021/04/09 05:32:23;;;;;;;2.20;1.83;;;11.50;71.70;;;;;;5114340;28;20044;-45
2021/04/09 05:34:48;;;;;;;2.30;2.08;;;11.50;71.60;;;;;;5114057;28;20044;-44
2021/04/09 05:37:14;;;;;;;2.42;2.20;;;11.50;71.60;;;;;;5114273;28;20504;-43
2021/04/09 05:39:40;;;;;;;2.88;2.13;;;11.50;71.60;;;;;;5113819;28;20130;-42
2021/04/09 05:42:06;;;;;;;3.38;2.10;;;11.50;71.70;;;;;;5114180;28;20408;-43
2021/04/09 05:44:34;;;;;;;2.80;2.15;;;11.50;71.60;;;;;;5113900;28;20043;-43
2021/04/09 05:47:02;;;;;;;2.83;2.28;;;11.50;71.70;;;;;;5113924;28;20122;-41
2021/04/09 05:49:28;;;;;;;2.20;1.90;;;11.50;71.70;;;;;;5113523;28;20051;-43
2021/04/09 05:51:54;;;;;;;3.10;2.30;;;11.50;71.70;;;;;;5113749;28;20044;-38
2021/04/09 05:54:19;;;;;;;2.30;2.05;;;11.50;71.70;;;;;;5113795;28;20066;-42
2021/04/09 05:56:45;;;;;;;2.25;2.05;;;11.50;71.70;;;;;;5113960;28;20067;-42
2021/04/09 05:59:11;;;;;;;2.90;2.10;;;11.50;71.70;;;;;;5113475;28;20510;-41
2021/04/09 06:01:36;;;;;;;3.45;2.63;;;11.50;71.70;;;;;;5113428;28;20487;-39
2021/04/09 06:04:02;;;;;;;2.50;2.15;;;11.50;71.70;;;;;;5112897;28;20097;-40
2021/04/09 06:06:28;;;;;;;2.90;2.40;;;11.50;71.70;;;;;;5112960;28;20039;-41
2021/04/09 06:08:53;;;;;;;3.33;2.20;;;11.50;71.70;;;;;;5113282;28;20040;-42
2021/04/09 06:11:19;;;;;;;3.45;2.38;;;11.50;71.70;;;;;;5112545;28;20490;-42
2021/04/09 06:13:45;;;;;;;3.72;2.58;;;11.60;71.80;;;;;;5112647;28;20503;-42
2021/04/09 06:16:11;;;;;;;2.05;1.85;;;11.50;71.70;;;;;;5111427;28;20078;-40
2021/04/09 06:18:36;;;;;;;3.13;2.25;;;11.50;71.70;;;;;;5113036;28;20047;-41
2021/04/09 06:21:02;;;;;;;2.70;2.30;;;11.50;71.70;;;;;;5112393;28;20031;-39
2021/04/09 06:23:28;;;;;;;2.50;2.25;;;11.50;71.70;;;;;;5113357;28;20388;-41
2021/04/09 06:25:54;;;;;;;2.63;2.35;;;11.50;71.70;;;;;;5113186;28;20046;-40
2021/04/09 06:28:19;;;;;;;2.47;2.00;;;11.50;71.70;;;;;;5113378;28;20063;-39
2021/04/09 06:30:45;;;;;;;3.00;2.40;;;11.50;71.70;;;;;;5113271;28;20412;-40
2021/04/09 06:33:11;;;;;;;3.17;2.22;;;11.50;71.70;;;;;;5112732;28;20055;-40
2021/04/09 06:35:36;;;;;;;3.33;1.90;;;11.50;71.70;;;;;;5113505;28;20052;-42
2021/04/09 06:38:02;;;;;;;2.75;2.40;;;11.50;71.70;;;;;;5112771;28;20047;-41
2021/04/09 06:40:29;;;;;;;3.92;2.50;;;11.50;71.70;;;;;;5112347;28;20121;-41
2021/04/09 06:42:58;;;;;;;2.70;2.45;;;11.50;71.70;;;;;;5112608;28;20056;-40
2021/04/09 06:45:24;;;;;;;3.10;2.30;;;11.50;71.70;;;;;;5112578;28;20105;-38
2021/04/09 06:47:52;;;;;;;3.33;2.40;;;11.50;71.70;;;;;;5112767;28;20433;-41
2021/04/09 06:50:18;;;;;;;3.17;2.20;;;11.50;71.70;;;;;;5110575;28;20070;-41
2021/04/09 06:52:46;;;;;;;2.60;2.10;;;11.50;71.70;;;;;;5112594;28;20496;-40
2021/04/09 06:55:17;;;;;;;3.13;2.15;;;11.50;71.80;;;;;;5112110;28;20048;-42
2021/04/09 06:57:45;;;;;;;2.40;2.20;;;11.50;71.70;;;;;;5113086;28;20067;-40
2021/04/09 07:00:12;;;;;;;3.85;2.30;;;11.50;71.70;;;;;;5112893;28;20422;-43
2021/04/09 07:02:44;;;;;;;11.13;7.07;;;11.50;71.80;;;;;;5113282;28;20071;-48
2021/04/09 07:05:12;;;;;;;6.68;4.13;;;11.50;71.20;;;;;;5113122;28;20048;-49
2021/04/09 07:07:38;;;;;;;7.30;4.50;;;11.50;71.40;;;;;;5112568;28;20054;-44
2021/04/09 07:10:04;;;;;;;5.32;4.38;;;11.40;71.40;;;;;;5112997;28;20043;-48
2021/04/09 07:12:31;;;;;;;5.40;4.20;;;11.40;71.40;;;;;;5113095;28;20115;-41
2021/04/09 07:14:59;;;;;;;7.13;4.70;;;11.40;71.40;;;;;;5112896;28;20051;-46
2021/04/09 07:17:35;;;;;;;6.00;4.40;;;11.40;71.40;;;;;;5112937;28;20812;-48
2021/04/09 07:20:19;;;;;;;6.32;4.60;;;11.40;71.40;;;;;;5112961;28;20045;-42
2021/04/09 07:22:50;;;;;;;6.25;4.03;;;11.40;71.40;;;;;;5112878;28;20083;-48
2021/04/09 07:25:18;;;;;;;6.07;4.35;;;11.40;71.40;;;;;;5112545;28;20043;-45
2021/04/09 07:27:46;;;;;;;6.70;4.57;;;11.50;71.50;;;;;;5112860;28;20407;-49
2021/04/09 07:30:26;;;;;;;5.68;4.20;;;11.50;71.50;;;;;;5112969;28;20043;-47
2021/04/09 07:33:00;;;;;;;7.78;4.00;;;11.50;71.50;;;;;;5112884;28;20051;-49
2021/04/09 07:35:26;;;;;;;4.53;3.85;;;11.50;71.50;;;;;;5112785;28;20058;-45
2021/04/09 07:37:54;;;;;;;4.88;4.28;;;11.50;71.50;;;;;;5112491;28;20047;-47
2021/04/09 07:40:31;;;;;;;4.88;3.58;;;11.50;71.60;;;;;;5112417;28;20048;-44
2021/04/09 07:42:59;;;;;;;5.55;3.60;;;11.50;71.60;;;;;;5111150;28;20524;-45
2021/04/09 07:45:27;;;;;;;5.68;3.70;;;11.50;71.60;;;;;;5113957;28;20043;-47
2021/04/09 07:48:16;;;;;;;4.07;3.35;;;11.50;71.60;;;;;;5116372;28;20063;-43
2021/04/09 07:50:48;;;;;;;6.65;3.55;;;11.50;71.60;;;;;;5116269;28;20056;-42
2021/04/09 07:53:29;;;;;;;4.65;3.63;;;11.50;71.60;;;;;;5116125;28;20067;-43
2021/04/09 07:56:01;;;;;;;5.05;3.35;;;11.50;71.70;;;;;;5115851;28;20053;-44
2021/04/09 07:58:27;;;;;;;4.13;3.28;;;11.50;71.70;;;;;;5115982;28;20071;-42
2021/04/09 08:00:53;;;;;;;4.97;3.50;;;11.50;71.70;;;;;;5114589;28;20078;-41
2021/04/09 08:03:40;;;;;;;6.18;3.53;;;11.50;71.70;;;;;;5116065;28;20047;-37
2021/04/09 08:06:13;;;;;;;4.97;3.60;;;11.60;72.40;;;;;;5115474;28;20058;-39
2021/04/09 08:08:59;;;;;;;5.55;3.08;;;11.50;71.80;;;;;;5115640;28;20502;-40
2021/04/09 08:11:30;;;;;;;4.20;3.22;;;11.50;71.70;;;;;;5115113;28;20479;-40
2021/04/09 08:14:09;;;;;;;4.72;3.33;;;11.50;71.70;;;;;;5116078;28;20189;-39
2021/04/09 08:16:39;;;;;;;3.28;2.53;;;11.50;71.70;;;;;;5115367;28;20047;-38
2021/04/09 08:19:27;;;;;;;3.83;3.13;;;11.50;71.80;;;;;;5106925;28;20050;-40
2021/04/09 08:21:58;;;;;;;3.65;2.92;;;11.50;71.80;;;;;;5115269;28;20434;-39
2021/04/09 08:24:31;;;;;;;3.30;2.92;;;11.50;71.80;;;;;;5115533;27;20479;-39
2021/04/09 08:26:57;;;;;;;4.18;3.20;;;11.50;71.80;;;;;;5114905;28;20075;-39
2021/04/09 08:29:24;;;;;;;3.75;2.80;;;11.60;71.80;;;;;;5115384;28;20403;-39
2021/04/09 08:31:50;;;;;;;3.90;2.80;;;11.60;71.80;;;;;;5114191;28;20495;-39
2021/04/09 08:34:19;;;;;;;3.35;2.60;;;11.50;71.80;;;;;;5115243;28;20595;-40
2021/04/09 08:36:46;;;;;;;5.32;3.30;;;11.60;71.90;;;;;;5114804;28;20043;-39
2021/04/09 08:39:13;;;;;;;4.53;2.55;;;11.60;71.90;;;;;;5115433;28;20115;-40
2021/04/09 08:41:42;;;;;;;4.00;3.03;;;11.60;71.80;;;;;;5114999;28;20035;-38
2021/04/09 08:44:09;;;;;;;3.85;3.05;;;11.60;71.90;;;;;;5115376;28;20048;-42
2021/04/09 08:46:36;;;;;;;3.40;2.67;;;11.60;71.90;;;;;;5115076;27;20040;-41
2021/04/09 08:49:04;;;;;;;2.97;2.70;;;11.60;71.90;;;;;;5114932;28;20065;-41
2021/04/09 08:51:33;;;;;;;3.42;2.58;;;11.60;71.90;;;;;;5115079;28;20060;-41
2021/04/09 08:54:29;;;;;;;3.13;2.75;;;11.60;71.90;;;;;;5114925;28;20400;-42
2021/04/09 08:56:55;;;;;;;;;;;11.60;71.90;;;;;;5051999;28;20064;-41
2021/04/09 08:59:40;;;;;;;;;;;11.60;71.90;;;;;;5052289;28;19932;-40
2021/04/09 09:02:24;;;;;;;3.63;2.60;;;11.60;71.90;;;;;;5052026;28;19967;-42
2021/04/09 09:05:06;;;;;;;3.08;2.67;;;11.60;71.90;;;;;;5052153;28;20048;-42
2021/04/09 09:07:43;;;;;;;3.58;2.40;;;11.60;71.90;;;;;;5052105;28;20072;-41
2021/04/09 09:10:30;;;;;;;2.85;2.50;;;11.60;71.90;;;;;;5051642;28;20053;-42
2021/04/09 09:13:08;;;;;;;2.30;1.88;;;11.60;71.90;;;;;;5051556;28;20048;-42
2021/04/09 09:15:43;;;;;;;2.95;2.33;;;11.60;71.90;;;;;;5051802;28;20061;-41
2021/04/09 09:18:30;;;;;;;2.58;1.98;;;11.60;71.90;;;;;;5051955;28;20101;-42
2021/04/09 09:21:14;;;;;;;3.00;2.28;;;11.60;71.90;;;;;;4991785;28;20085;-40
2021/04/09 09:23:57;;;;;;;3.13;2.33;;;11.60;71.90;;;;;;4992448;28;20069;-42
2021/04/09 09:26:31;;;;;;;2.05;1.80;;;11.60;71.90;;;;;;4992332;28;20431;-41
2021/04/09 09:29:22;;;;;;;2.88;2.28;;;11.60;71.90;;;;;;4991778;28;20081;-41
2021/04/09 09:32:05;;;;;;;2.40;2.20;;;11.60;71.90;;;;;;4992099;28;20108;-44
2021/04/09 09:34:32;;;;;;;2.40;1.98;;;11.60;71.90;;;;;;5071105;28;20202;-43
2021/04/09 09:36:59;;;;;;;2.33;2.13;;;11.60;71.90;;;;;;5071410;28;20067;-45
2021/04/09 09:39:45;;;;;;;6.25;3.47;;;11.60;71.90;;;;;;5070389;28;20091;-44
2021/04/09 09:42:34;;;;;;;7.30;2.85;;;11.60;71.80;;;;;;5070389;28;20048;-43
2021/04/09 09:45:03;;;;;;;4.25;2.20;;;11.50;71.80;;;;;;5060141;28;20075;-43
2021/04/09 09:47:33;;;;;;;4.50;2.70;;;11.50;71.90;;;;;;5070742;28;20041;-40
2021/04/09 09:52:49;;;;;;;3.22;2.50;;;11.50;71.90;;;;;;5065537;28;20053;-39
2021/04/09 09:55:35;;;;;;;5.90;2.75;;;11.60;72.00;;;;;;5064718;28;20067;-40
2021/04/09 09:58:01;;;;;;;;;;;11.50;72.00;;;;;;5086237;28;20475;-43
2021/04/09 10:00:32;;;;;;;;;;;11.50;72.00;;;;;;5108730;28;19924;-41
2021/04/09 10:03:32;;;;;;;5.93;2.42;;;11.50;72.10;;;;;;5108581;28;20400;-42
2021/04/09 10:06:00;;;;;;;2.63;2.10;;;11.50;72.00;;;;;;5065400;28;20080;-40
2021/04/09 10:08:27;;;;;;;3.65;2.10;;;11.50;72.10;;;;;;5064545;28;20109;-39
2021/04/09 10:11:02;;;;;;;2.95;2.20;;;11.60;72.10;;;;;;5065164;28;20041;-40
2021/04/09 10:13:38;;;;;;;3.20;2.10;;;11.60;72.20;;;;;;5065427;28;20548;-41
2021/04/09 10:16:15;;;;;;;4.22;2.25;;;11.60;72.20;;;;;;5064997;28;20821;-40
2021/04/09 10:18:50;;;;;;;5.45;2.97;;;11.60;72.20;;;;;;5065005;28;20109;-41
2021/04/09 10:21:20;;;;;;;2.80;1.80;;;11.60;72.20;;;;;;5067776;28;20044;-41
2021/04/09 10:23:51;;;;;;;3.50;2.35;;;11.60;72.20;;;;;;5068831;28;20056;-40
2021/04/09 10:26:22;;;;;;;2.58;2.08;;;11.60;72.20;;;;;;5067730;28;20047;-41
2021/04/09 10:28:48;;;;;;;4.18;2.33;;;11.60;72.20;;;;;;5058934;28;20052;-41
2021/04/09 10:31:19;;;;;;;2.72;1.75;;;11.60;72.20;;;;;;5067229;28;20051;-41
2021/04/09 10:33:47;;;;;;;3.47;1.90;;;11.60;72.20;;;;;;5068286;28;20481;-41
2021/04/09 10:36:29;;;;;;;4.43;1.90;;;11.60;72.20;;;;;;5067832;28;20178;-42
2021/04/09 10:38:57;;;;;;;3.05;1.98;;;11.60;72.20;;;;;;5069299;28;20072;-41
2021/04/09 10:41:32;;;;;;;2.90;1.80;;;11.60;72.20;;;;;;5069629;28;20044;-40
2021/04/09 10:44:04;;;;;;;3.03;1.87;;;11.60;72.20;;;;;;5112266;28;20067;-40
2021/04/09 10:46:39;;;;;;;3.65;1.80;;;11.60;72.20;;;;;;5112651;28;20051;-42
2021/04/09 10:49:16;;;;;;;2.95;1.98;;;11.60;72.20;;;;;;5112044;28;20044;-39
2021/04/09 10:51:45;;;;;;;3.88;2.10;;;11.60;72.20;;;;;;5113012;28;20043;-42
2021/04/09 10:54:15;;;;;;;2.53;2.25;;;11.60;72.20;;;;;;5110551;28;20070;-42
2021/04/09 10:56:52;;;;;;;3.08;1.88;;;11.60;72.20;;;;;;5112135;28;20052;-45
2021/04/09 10:59:19;;;;;;;2.17;1.75;;;11.60;72.20;;;;;;5112957;28;20047;-40
2021/04/09 11:01:46;;;;;;;2.30;1.67;;;11.70;72.30;;;;;;5112570;28;20047;-39
2021/04/09 11:04:15;;;;;;;2.78;1.70;;;11.70;72.30;;;;;;5111753;28;20050;-41
2021/04/09 11:06:47;;;;;;;2.33;1.67;;;11.60;72.20;;;;;;5111591;28;20051;-41
2021/04/09 11:09:14;;;;;;;2.17;1.63;;;11.60;72.20;;;;;;5112672;28;20465;-40
2021/04/09 11:11:40;;;;;;;2.15;1.70;;;11.70;72.20;;;;;;5112359;28;20159;-39
2021/04/09 11:14:18;;;;;;;1.73;1.42;;;11.70;72.20;;;;;;5113148;28;20520;-39
2021/04/09 11:16:51;;;;;;;3.08;1.85;;;11.70;72.20;;;;;;5112730;28;20074;-39
2021/04/09 11:19:21;;;;;;;3.70;2.25;;;11.70;72.20;;;;;;5114259;28;20054;-40
2021/04/09 11:21:48;;;;;;;2.53;1.92;;;11.70;72.20;;;;;;5116558;28;20070;-39
2021/04/09 11:24:21;;;;;;;2.53;1.42;;;11.70;72.90;;;;;;5116494;28;20059;-42
2021/04/09 11:26:47;;;;;;;2.67;1.48;;;11.70;72.20;;;;;;5112727;28;20067;-42
2021/04/09 11:29:21;;;;;;;2.80;1.73;;;11.70;72.20;;;;;;5113826;28;20074;-42
2021/04/09 11:31:46;;;;;;;1.75;1.60;;;11.70;72.20;;;;;;5113180;28;20055;-41
2021/04/09 11:34:12;;;;;;;2.35;1.20;;;11.70;72.20;;;;;;5115119;28;20043;-40
2021/04/09 11:36:42;;;;;;;2.15;1.42;;;11.70;72.10;;;;;;5115721;28;20043;-44
2021/04/09 11:39:17;;;;;;;1.98;1.50;;;11.70;72.20;;;;;;5113485;28;20043;-42
2021/04/09 11:42:08;;;;;;;1.75;1.42;;;11.70;72.10;;;;;;5115021;28;20101;-40
2021/04/09 11:44:36;;;;;;;2.10;1.15;;;11.70;72.10;;;;;;5114622;28;20044;-42
2021/04/09 11:47:29;;;;;;;3.22;1.40;;;11.70;72.10;;;;;;5115294;28;20047;-39
2021/04/09 11:50:09;;;;;;;1.73;1.40;;;11.70;72.10;;;;;;5113231;28;20043;-44
2021/04/09 11:53:02;;;;;;;2.40;1.60;;;11.70;72.70;;;;;;5114583;28;20062;-43
2021/04/09 11:55:38;;;;;;;3.80;1.60;;;11.70;72.00;;;;;;5115252;28;20059;-43
2021/04/09 11:58:17;;;;;;;1.85;1.55;;;11.70;72.00;;;;;;5102627;28;20165;-41
2021/04/09 12:00:54;;;;;;;1.83;1.45;;;11.70;72.10;;;;;;5114385;28;20067;-39
2021/04/09 12:03:19;;;;;;;1.80;1.42;;;11.70;72.00;;;;;;5112322;28;20051;-40
2021/04/09 12:05:45;;;;;;;2.08;1.45;;;11.70;72.00;;;;;;5114764;28;20046;-41
2021/04/09 12:08:11;;;;;;;1.50;1.40;;;11.80;72.10;;;;;;5115150;28;20472;-41
2021/04/09 12:10:36;;;;;;;1.35;1.15;;;11.70;72.00;;;;;;5113717;28;20051;-39
2021/04/09 12:13:03;;;;;;;1.42;1.17;;;11.70;72.00;;;;;;5114454;28;20101;-42
2021/04/09 12:15:29;;;;;;;2.47;1.27;;;11.70;72.00;;;;;;5112087;28;20104;-40
2021/04/09 12:17:55;;;;;;;2.05;1.58;;;11.80;72.00;;;;;;5113332;28;20047;-41
2021/04/09 12:20:24;;;;;;;2.85;1.40;;;11.80;72.00;;;;;;5114624;28;20074;-42
2021/04/09 12:22:50;;;;;;;2.58;1.58;;;11.80;72.00;;;;;;5111814;28;20416;-40
2021/04/09 12:25:17;;;;;;;1.17;1.02;;;11.80;72.00;;;;;;5113725;28;20043;-40
2021/04/09 12:27:44;;;;;;;1.63;1.38;;;11.80;72.00;;;;;;5113940;28;20047;-41
2021/04/09 12:30:12;;;;;;;2.38;1.30;;;11.80;72.00;;;;;;5111218;28;20039;-42
2021/04/09 12:32:38;;;;;;;2.75;1.40;;;11.80;72.00;;;;;;5113263;28;20048;-40
2021/04/09 12:35:05;;;;;;;1.90;1.20;;;11.80;72.00;;;;;;5114045;28;20468;-40
2021/04/09 12:37:31;;;;;;;1.85;1.30;;;11.80;72.00;;;;;;5114525;28;20139;-43
2021/04/09 12:39:57;;;;;;;1.27;1.17;;;11.80;72.00;;;;;;5113051;28;20134;-40
2021/04/09 12:42:23;;;;;;;1.35;1.23;;;11.80;72.00;;;;;;5114201;28;20043;-41
2021/04/09 12:44:52;;;;;;;1.27;1.02;;;11.80;72.00;;;;;;5114020;28;20047;-40
2021/04/09 12:47:18;;;;;;;1.42;1.10;;;11.80;72.00;;;;;;5114140;28;20040;-40
2021/04/09 12:49:43;;;;;;;1.42;1.25;;;11.80;72.00;;;;;;5113769;28;20048;-42
2021/04/09 12:52:10;;;;;;;1.52;1.23;;;11.80;71.90;;;;;;5111527;28;20044;-40
2021/04/09 12:54:36;;;;;;;1.67;1.48;;;11.80;71.90;;;;;;5113851;28;20122;-39
2021/04/09 12:57:02;;;;;;;1.30;1.20;;;11.80;71.90;;;;;;5113934;28;20055;-40
2021/04/09 12:59:28;;;;;;;2.05;1.20;;;11.80;71.90;;;;;;5113763;28;20122;-40
2021/04/09 13:01:53;;;;;;;1.10;0.90;;;11.80;71.90;;;;;;5109441;28;20483;-40
2021/04/09 13:04:19;;;;;;;1.35;1.08;;;11.80;71.90;;;;;;5107394;28;20040;-40